createdAt,value
2022-11-14T00:02:09.167Z,20.92
2022-11-14T00:04:56.043Z,17.50
2022-11-14T00:07:42.561Z,17.20
2022-11-14T00:10:28.786Z,21.70
2022-11-14T00:13:15.324Z,20.20
2022-11-14T00:16:03.931Z,23.05
2022-11-14T00:18:51.533Z,18.60
2022-11-14T00:21:39.762Z,17.95
2022-11-14T00:24:25.680Z,20.65
2022-11-14T00:27:12.692Z,18.70
2022-11-14T00:30:01.565Z,20.85
2022-11-14T00:32:47.501Z,20.65
2022-11-14T00:35:33.808Z,20.50
2022-11-14T00:38:19.720Z,21.10
2022-11-14T00:41:06.336Z,23.90
2022-11-14T00:43:52.900Z,20.40
2022-11-14T00:46:42.858Z,25.20
2022-11-14T00:49:31.629Z,25.95
2022-11-14T00:52:17.508Z,23.73
2022-11-14T00:55:03.680Z,22.23
2022-11-14T00:57:51.051Z,28.42
2022-11-14T01:03:43.389Z,26.55
2022-11-14T01:06:30.371Z,22.75
2022-11-14T01:09:18.293Z,27.30
2022-11-14T01:12:05.206Z,26.02
2022-11-14T01:14:51.215Z,29.38
2022-11-14T01:17:39.153Z,28.88
2022-11-14T01:20:25.512Z,26.65
2022-11-14T01:23:15.624Z,28.80
2022-11-14T01:28:49.674Z,30.42
2022-11-14T01:31:40.779Z,32.42
2022-11-14T01:34:27.298Z,36.90
2022-11-14T01:37:13.917Z,29.00
2022-11-14T01:40:05.628Z,35.35
2022-11-14T01:43:32.315Z,28.02
2022-11-14T01:46:24.085Z,38.35
2022-11-14T01:49:10.139Z,30.90
2022-11-14T01:52:03.234Z,30.48
2022-11-14T01:54:52.145Z,31.13
2022-11-14T01:57:46.616Z,36.10
2022-11-14T02:00:33.655Z,31.67
2022-11-14T02:03:21.090Z,33.20
2022-11-14T02:06:08.345Z,36.97
2022-11-14T02:08:54.771Z,37.25
2022-11-14T02:11:45.333Z,33.90
2022-11-14T02:14:34.625Z,34.70
2022-11-14T02:17:30.155Z,33.55
2022-11-14T02:20:28.897Z,31.83
2022-11-14T02:23:26.100Z,35.08
2022-11-14T02:26:12.086Z,35.47
2022-11-14T02:29:00.685Z,34.30
2022-11-14T02:31:47.563Z,35.47
2022-11-14T02:34:34.711Z,39.00
2022-11-14T02:37:21.046Z,38.05
2022-11-14T02:40:08.156Z,35.45
2022-11-14T02:42:54.703Z,33.70
2022-11-14T02:45:41.070Z,31.23
2022-11-14T02:48:28.765Z,34.90
2022-11-14T02:51:18.367Z,37.28
2022-11-14T02:54:05.418Z,35.25
2022-11-14T02:56:52.496Z,31.65
2022-11-14T02:59:39.138Z,34.92
2022-11-14T03:02:26.637Z,35.47
2022-11-14T03:05:12.867Z,35.97
2022-11-14T03:08:01.789Z,36.97
2022-11-14T03:10:47.793Z,34.60
2022-11-14T03:13:34.228Z,34.80
2022-11-14T03:16:20.347Z,40.97
2022-11-14T03:19:06.563Z,39.33
2022-11-14T03:21:53.190Z,40.33
2022-11-14T03:24:40.001Z,38.60
2022-11-14T03:27:27.352Z,39.60
2022-11-14T03:30:13.892Z,40.90
2022-11-14T03:33:00.623Z,38.85
2022-11-14T03:35:47.304Z,37.92
2022-11-14T03:38:34.419Z,40.13
2022-11-14T03:41:21.337Z,38.53
2022-11-14T03:44:08.034Z,42.38
2022-11-14T03:46:54.322Z,43.28
2022-11-14T03:49:41.413Z,42.20
2022-11-14T03:52:27.927Z,41.20
2022-11-14T03:55:14.386Z,41.22
2022-11-14T03:58:02.334Z,42.30
2022-11-14T04:00:49.083Z,40.40
2022-11-14T04:03:47.877Z,39.47
2022-11-14T04:06:34.033Z,42.53
2022-11-14T04:09:21.356Z,41.38
2022-11-14T04:12:12.698Z,41.55
2022-11-14T04:15:04.148Z,43.00
2022-11-14T04:17:50.755Z,42.38
2022-11-14T04:20:38.771Z,42.13
2022-11-14T04:23:24.797Z,41.65
2022-11-14T04:26:11.782Z,41.50
2022-11-14T04:28:57.757Z,37.28
2022-11-14T04:31:44.053Z,44.33
2022-11-14T04:34:30.866Z,39.50
2022-11-14T04:37:16.965Z,41.17
2022-11-14T04:40:03.740Z,42.53
2022-11-14T04:42:50.435Z,38.30
2022-11-14T04:45:36.835Z,41.13
2022-11-14T04:48:23.624Z,42.42
2022-11-14T04:51:09.856Z,38.70
2022-11-14T04:53:56.285Z,43.25
2022-11-14T04:56:43.343Z,40.25
2022-11-14T04:59:30.663Z,41.28
2022-11-14T05:02:17.110Z,40.95
2022-11-14T05:05:03.421Z,40.92
2022-11-14T05:07:49.929Z,45.05
2022-11-14T05:10:36.347Z,42.03
2022-11-14T05:13:22.262Z,42.97
2022-11-14T05:16:08.295Z,41.95
2022-11-14T05:18:55.311Z,43.95
2022-11-14T05:21:45.169Z,42.65
2022-11-14T05:24:32.446Z,41.45
2022-11-14T05:27:19.470Z,40.22
2022-11-14T05:30:05.890Z,46.28
2022-11-14T05:32:55.080Z,48.70
2022-11-14T05:35:41.614Z,41.78
2022-11-14T05:38:28.875Z,45.38
2022-11-14T05:41:17.291Z,39.92
2022-11-14T05:44:05.467Z,47.42
2022-11-14T05:46:51.651Z,43.33
2022-11-14T05:49:38.156Z,45.42
2022-11-14T05:52:24.174Z,43.80
2022-11-14T05:55:11.160Z,46.47
2022-11-14T05:58:01.525Z,41.83
2022-11-14T06:00:53.446Z,41.08
2022-11-14T06:03:42.836Z,42.70
2022-11-14T06:06:30.328Z,43.10
2022-11-14T06:09:18.134Z,41.03
2022-11-14T06:12:08.078Z,41.28
2022-11-14T06:14:54.212Z,37.92
2022-11-14T06:17:40.497Z,42.13
2022-11-14T06:20:26.769Z,39.38
2022-11-14T06:23:12.900Z,42.63
2022-11-14T06:26:08.154Z,37.72
2022-11-14T06:28:56.416Z,42.50
2022-11-14T06:31:45.003Z,41.88
2022-11-14T06:34:32.850Z,43.75
2022-11-14T06:37:19.695Z,37.13
2022-11-14T06:40:06.612Z,37.15
2022-11-14T06:42:58.436Z,37.65
2022-11-14T06:45:45.041Z,35.67
2022-11-14T06:48:32.511Z,39.38
2022-11-14T06:51:19.437Z,37.10
2022-11-14T06:54:05.990Z,39.85
2022-11-14T06:56:52.535Z,38.63
2022-11-14T06:59:38.625Z,39.15
2022-11-14T07:02:25.060Z,39.20
2022-11-14T07:05:11.102Z,35.15
2022-11-14T07:07:58.429Z,39.22
2022-11-14T07:10:46.058Z,31.13
2022-11-14T07:13:33.309Z,34.55
2022-11-14T07:16:20.429Z,36.63
2022-11-14T07:19:13.049Z,35.83
2022-11-14T07:22:01.785Z,37.58
2022-11-14T07:24:48.823Z,35.70
2022-11-14T07:27:35.706Z,39.25
2022-11-14T07:30:22.482Z,33.70
2022-11-14T07:33:08.844Z,38.53
2022-11-14T07:35:55.835Z,33.30
2022-11-14T07:38:42.200Z,41.03
2022-11-14T07:41:38.346Z,32.22
2022-11-14T07:44:24.296Z,33.50
2022-11-14T07:47:14.174Z,33.55
2022-11-14T07:50:03.601Z,33.42
2022-11-14T07:52:57.702Z,31.33
2022-11-14T07:55:44.724Z,35.53
2022-11-14T07:58:38.203Z,39.97
2022-11-14T08:01:24.224Z,30.75
2022-11-14T08:04:13.080Z,30.65
2022-11-14T08:07:01.762Z,31.52
2022-11-14T08:09:54.556Z,30.73
2022-11-14T08:12:42.865Z,27.23
2022-11-14T08:15:31.776Z,28.50
2022-11-14T08:18:18.762Z,27.65
2022-11-14T08:21:06.185Z,25.98
2022-11-14T08:23:52.552Z,27.08
2022-11-14T08:30:02.891Z,29.40
2022-11-14T08:32:49.369Z,29.73
2022-11-14T08:35:36.091Z,28.42
2022-11-14T08:38:22.969Z,28.48
2022-11-14T08:41:08.741Z,30.02
2022-11-14T08:43:58.760Z,27.35
2022-11-14T08:46:45.465Z,31.40
2022-11-14T08:49:34.811Z,29.75
2022-11-14T08:52:22.097Z,26.15
2022-11-14T08:55:08.473Z,32.30
2022-11-14T08:57:55.106Z,33.97
2022-11-14T09:00:41.264Z,26.10
2022-11-14T09:03:27.887Z,28.27
2022-11-14T09:06:14.114Z,26.05
2022-11-14T09:09:04.125Z,26.63
2022-11-14T09:11:51.085Z,27.43
2022-11-14T09:14:37.680Z,23.65
2022-11-14T09:17:23.755Z,25.58
2022-11-14T09:20:10.461Z,22.52
2022-11-14T09:23:01.854Z,22.67
2022-11-14T09:25:48.133Z,20.50
2022-11-14T09:28:34.780Z,22.17
2022-11-14T09:31:21.927Z,22.13
2022-11-14T09:34:08.223Z,27.42
2022-11-14T09:36:54.461Z,30.80
2022-11-14T09:39:40.925Z,24.30
2022-11-14T09:42:30.343Z,26.00
2022-11-14T09:45:17.598Z,25.35
2022-11-14T09:48:10.783Z,22.33
2022-11-14T09:51:08.966Z,24.40
2022-11-14T09:54:27.567Z,29.27
2022-11-14T09:57:18.664Z,26.15
2022-11-14T10:02:56.580Z,26.35
2022-11-14T10:05:51.636Z,26.33
2022-11-14T10:09:02.138Z,27.75
2022-11-14T10:11:52.648Z,24.80
2022-11-14T10:14:57.926Z,31.17
2022-11-14T10:17:47.212Z,26.70
2022-11-14T10:20:49.163Z,30.00
2022-11-14T10:23:47.869Z,27.20
2022-11-14T10:26:37.689Z,31.95
2022-11-14T10:29:39.652Z,26.27
2022-11-14T10:32:26.046Z,28.08
2022-11-14T10:35:15.558Z,27.38
2022-11-14T10:38:03.210Z,28.52
2022-11-14T10:40:58.260Z,29.58
2022-11-14T10:43:47.285Z,30.05
2022-11-14T10:46:34.994Z,35.00
2022-11-14T10:49:24.900Z,29.80
2022-11-14T10:52:14.262Z,38.67
2022-11-14T10:55:18.043Z,32.90
2022-11-14T10:58:09.510Z,31.38
2022-11-14T11:00:55.934Z,32.90
2022-11-14T11:03:42.952Z,30.48
2022-11-14T11:06:30.294Z,31.10
2022-11-14T11:09:42.168Z,33.13
2022-11-14T11:15:41.488Z,34.85
2022-11-14T11:18:30.640Z,33.55
2022-11-14T11:21:18.886Z,37.87
2022-11-14T11:24:05.452Z,36.03
2022-11-14T11:27:11.562Z,38.75
2022-11-14T11:30:17.949Z,40.70
2022-11-14T11:33:24.253Z,41.78
2022-11-14T11:36:16.136Z,39.03
2022-11-14T11:39:13.064Z,39.75
2022-11-14T11:42:10.619Z,41.75
2022-11-14T11:45:03.663Z,43.45
2022-11-14T11:48:22.803Z,37.92
2022-11-14T11:51:23.166Z,40.90
2022-11-14T11:54:18.181Z,42.42
2022-11-14T11:57:09.450Z,49.67
2022-11-14T12:00:01.551Z,43.50
2022-11-14T12:02:50.512Z,41.42
2022-11-14T12:05:56.900Z,41.78
2022-11-14T12:09:12.732Z,39.17
2022-11-14T12:12:04.093Z,42.72
2022-11-14T12:15:10.137Z,42.33
2022-11-14T12:18:05.331Z,48.28
2022-11-14T12:21:04.370Z,50.45
2022-11-14T12:23:57.004Z,41.53
2022-11-14T12:26:43.172Z,43.90
2022-11-14T12:29:32.425Z,45.85
2022-11-14T12:32:20.637Z,44.35
2022-11-14T12:35:08.364Z,43.83
2022-11-14T12:37:56.324Z,50.47
2022-11-14T12:40:44.099Z,51.58
2022-11-14T12:43:36.109Z,47.38
2022-11-14T12:46:23.303Z,49.35
2022-11-14T12:49:34.225Z,46.00
2022-11-14T12:52:45.607Z,49.40
2022-11-14T12:55:36.043Z,46.50
2022-11-14T12:58:33.657Z,48.85
2022-11-14T13:01:26.569Z,47.20
2022-11-14T13:04:32.534Z,52.55
2022-11-14T13:07:34.507Z,49.03
2022-11-14T13:10:50.897Z,50.47
2022-11-14T13:14:15.931Z,47.40
2022-11-14T13:17:34.865Z,50.38
2022-11-14T13:20:55.036Z,49.00
2022-11-14T13:23:44.386Z,50.85
2022-11-14T13:26:32.229Z,55.80
2022-11-14T13:29:39.708Z,52.00
2022-11-14T13:32:41.447Z,56.90
2022-11-14T13:35:35.384Z,51.95
2022-11-14T13:38:21.479Z,56.35
2022-11-14T13:41:23.894Z,48.83
2022-11-14T13:44:19.581Z,58.75
2022-11-14T13:47:12.904Z,53.17
2022-11-14T13:50:08.489Z,47.95
2022-11-14T13:52:55.178Z,49.83
2022-11-14T13:55:41.122Z,48.95
2022-11-14T13:58:39.921Z,50.97
2022-11-14T14:01:26.375Z,62.58
2022-11-14T14:04:33.711Z,49.30
2022-11-14T14:07:20.133Z,55.15
2022-11-14T14:10:09.281Z,55.53
2022-11-14T14:12:56.586Z,53.30
2022-11-14T14:16:02.228Z,53.58
2022-11-14T14:19:07.267Z,48.22
2022-11-14T14:22:06.032Z,52.92
2022-11-14T14:25:02.350Z,50.22
2022-11-14T14:28:08.678Z,53.67
2022-11-14T14:31:23.730Z,50.72
2022-11-14T14:34:23.892Z,48.78
2022-11-14T14:37:20.858Z,54.88
2022-11-14T14:40:11.781Z,47.20
2022-11-14T14:42:58.096Z,48.60
2022-11-14T14:45:52.243Z,49.20
2022-11-14T14:48:41.290Z,45.95
2022-11-14T14:51:36.573Z,48.17
2022-11-14T14:54:26.641Z,53.05
2022-11-14T14:57:53.595Z,50.03
2022-11-14T15:00:39.912Z,47.13
2022-11-14T15:03:26.973Z,53.00
2022-11-14T15:06:30.226Z,50.65
2022-11-14T15:09:23.934Z,46.40
2022-11-14T15:12:10.660Z,45.72
2022-11-14T15:14:57.260Z,49.88
2022-11-14T15:17:43.777Z,46.22
2022-11-14T15:20:32.518Z,48.80
2022-11-14T15:23:20.139Z,45.28
2022-11-14T15:26:12.354Z,42.83
2022-11-14T15:29:08.950Z,42.40
2022-11-14T15:32:01.529Z,42.33
2022-11-14T15:35:25.976Z,40.33
2022-11-14T15:38:54.225Z,44.15
2022-11-14T15:41:42.553Z,43.17
2022-11-14T15:44:36.575Z,40.40
2022-11-14T15:47:33.072Z,38.28
2022-11-14T15:50:20.040Z,40.15
2022-11-14T15:53:26.802Z,36.63
2022-11-14T15:56:14.112Z,33.88
2022-11-14T15:59:58.366Z,32.70
2022-11-14T16:02:50.718Z,35.03
2022-11-14T16:05:43.027Z,31.88
2022-11-14T16:08:34.378Z,34.00
2022-11-14T16:11:20.723Z,33.60
2022-11-14T16:14:11.027Z,33.45
2022-11-14T16:16:58.443Z,36.10
2022-11-14T16:19:53.804Z,33.42
2022-11-14T16:22:43.787Z,32.40
2022-11-14T16:25:31.589Z,32.05
2022-11-14T16:28:18.094Z,31.45
2022-11-14T16:31:04.797Z,35.80
2022-11-14T16:33:51.644Z,32.28
2022-11-14T16:36:38.319Z,33.92
2022-11-14T16:39:25.020Z,34.45
2022-11-14T16:42:11.970Z,35.55
2022-11-14T16:45:02.308Z,33.92
2022-11-14T16:47:49.253Z,33.72
2022-11-14T16:50:38.497Z,30.75
2022-11-14T16:53:24.582Z,33.00
2022-11-14T16:56:12.969Z,35.83
2022-11-14T16:58:59.209Z,31.02
2022-11-14T17:01:48.499Z,36.10
2022-11-14T17:04:34.746Z,33.50
2022-11-14T17:07:22.982Z,42.80
2022-11-14T17:10:09.711Z,35.45
2022-11-14T17:12:56.522Z,33.15
2022-11-14T17:15:43.032Z,31.95
2022-11-14T17:18:35.484Z,33.63
2022-11-14T17:21:24.535Z,33.10
2022-11-14T17:24:11.134Z,34.72
2022-11-14T17:26:57.521Z,30.20
2022-11-14T17:29:44.223Z,31.60
2022-11-14T17:32:31.660Z,32.45
2022-11-14T17:35:18.072Z,37.55
2022-11-14T17:38:04.851Z,35.63
2022-11-14T17:41:07.899Z,37.15
2022-11-14T17:44:01.966Z,38.95
2022-11-14T17:46:49.710Z,33.80
2022-11-14T17:49:35.966Z,37.97
2022-11-14T17:52:22.558Z,33.58
2022-11-14T17:55:09.147Z,32.58
2022-11-14T17:57:58.749Z,38.15
2022-11-14T18:00:45.302Z,37.30
2022-11-14T18:03:32.730Z,34.95
2022-11-14T18:06:20.010Z,34.28
2022-11-14T18:09:14.075Z,33.15
2022-11-14T18:12:01.618Z,35.28
2022-11-14T18:14:48.239Z,33.83
2022-11-14T18:17:34.814Z,34.20
2022-11-14T18:20:21.636Z,33.83
2022-11-14T18:23:07.977Z,34.00
2022-11-14T18:25:54.280Z,36.05
2022-11-14T18:28:40.353Z,35.50
2022-11-14T18:31:26.807Z,35.47
2022-11-14T18:34:12.878Z,35.72
2022-11-14T18:37:02.112Z,36.78
2022-11-14T18:39:48.157Z,34.30
2022-11-14T18:42:34.392Z,32.63
2022-11-14T18:45:21.382Z,40.42
2022-11-14T18:48:07.593Z,32.35
2022-11-14T18:50:57.527Z,35.45
2022-11-14T18:53:46.135Z,34.42
2022-11-14T18:56:33.136Z,36.85
2022-11-14T18:59:19.754Z,34.63
2022-11-14T19:02:06.379Z,33.58
2022-11-14T19:04:53.395Z,33.00
2022-11-14T19:07:39.786Z,34.33
2022-11-14T19:10:25.754Z,32.78
2022-11-14T19:13:12.093Z,32.35
2022-11-14T19:16:05.201Z,33.50
2022-11-14T19:18:51.258Z,33.55
2022-11-14T19:21:37.987Z,33.45
2022-11-14T19:24:24.057Z,34.80
2022-11-14T19:27:13.594Z,33.03
2022-11-14T19:30:03.280Z,37.20
2022-11-14T19:32:49.498Z,34.08
2022-11-14T19:35:39.538Z,39.97
2022-11-14T19:38:25.883Z,38.47
2022-11-14T19:41:16.123Z,37.22
2022-11-14T19:44:02.968Z,36.13
2022-11-14T19:46:49.355Z,33.63
2022-11-14T19:49:35.663Z,36.85
2022-11-14T19:52:22.112Z,35.10
2022-11-14T19:55:08.227Z,38.17
2022-11-14T19:57:54.489Z,33.63
2022-11-14T20:00:40.834Z,32.50
2022-11-14T20:03:28.184Z,34.30
2022-11-14T20:06:28.442Z,30.30
2022-11-14T20:09:17.712Z,32.53
2022-11-14T20:12:06.360Z,36.23
2022-11-14T20:14:55.590Z,37.03
2022-11-14T20:17:41.963Z,34.75
2022-11-14T20:20:28.373Z,34.00
2022-11-14T20:23:14.563Z,31.48
2022-11-14T20:26:05.891Z,33.22
2022-11-14T20:28:55.053Z,32.28
2022-11-14T20:31:41.854Z,31.27
2022-11-14T20:34:28.527Z,32.45
2022-11-14T20:37:15.599Z,31.85
2022-11-14T20:40:36.109Z,33.10
2022-11-14T20:46:12.504Z,37.67
2022-11-14T20:49:01.052Z,32.15
2022-11-14T20:51:49.863Z,36.75
2022-11-14T20:54:36.895Z,38.67
2022-11-14T20:57:23.092Z,34.30
2022-11-14T21:00:10.013Z,33.42
2022-11-14T21:02:56.371Z,34.10
2022-11-14T21:05:45.163Z,38.97
2022-11-14T21:08:34.365Z,33.03
2022-11-14T21:11:22.571Z,32.63
2022-11-14T21:14:09.279Z,33.85
2022-11-14T21:16:55.241Z,36.70
2022-11-14T21:19:41.265Z,32.17
2022-11-14T21:22:27.462Z,35.25
2022-11-14T21:25:19.070Z,31.67
2022-11-14T21:28:05.299Z,36.15
2022-11-14T21:30:51.663Z,32.17
2022-11-14T21:33:38.523Z,36.58
2022-11-14T21:39:33.278Z,36.50
2022-11-14T21:42:19.263Z,36.25
2022-11-14T21:45:07.889Z,35.78
2022-11-14T21:47:54.103Z,31.67
2022-11-14T21:50:40.399Z,34.97
2022-11-14T21:53:28.558Z,30.40
2022-11-14T21:56:18.967Z,33.13
2022-11-14T21:59:14.625Z,34.45
2022-11-14T22:02:21.889Z,32.58
2022-11-14T22:05:08.626Z,32.33
2022-11-14T22:07:55.006Z,30.00
2022-11-14T22:10:41.623Z,38.47
2022-11-14T22:13:32.546Z,33.45
2022-11-14T22:16:19.734Z,34.00
2022-11-14T22:19:07.036Z,29.15
2022-11-14T22:21:54.297Z,32.42
2022-11-14T22:24:40.676Z,37.70
2022-11-14T22:27:27.139Z,33.65
2022-11-14T22:30:15.326Z,38.97
2022-11-14T22:33:10.757Z,35.88
2022-11-14T22:36:02.915Z,36.60
2022-11-14T22:38:49.704Z,40.85
2022-11-14T22:41:38.016Z,43.42
2022-11-14T22:44:24.658Z,45.47
2022-11-14T22:47:12.171Z,45.63
2022-11-14T22:49:59.996Z,49.03
2022-11-14T22:52:46.757Z,51.90
2022-11-14T22:55:33.889Z,46.60
2022-11-14T22:58:19.845Z,49.90
2022-11-14T23:01:19.419Z,52.08
2022-11-14T23:04:06.168Z,49.43
2022-11-14T23:06:53.500Z,48.90
2022-11-14T23:09:39.653Z,50.03
2022-11-14T23:12:25.640Z,39.28
2022-11-14T23:15:12.166Z,43.42
2022-11-14T23:18:05.092Z,48.60
2022-11-14T23:20:51.217Z,49.58
2022-11-14T23:23:37.840Z,49.70
2022-11-14T23:26:24.596Z,53.55
2022-11-14T23:29:14.283Z,50.83
2022-11-14T23:32:01.792Z,50.45
2022-11-14T23:34:48.275Z,44.83
2022-11-14T23:37:34.310Z,46.15
2022-11-14T23:40:20.631Z,50.05
2022-11-14T23:43:06.659Z,41.88
2022-11-14T23:45:53.061Z,48.53
2022-11-14T23:48:38.873Z,42.17
2022-11-14T23:51:25.513Z,46.80
2022-11-14T23:54:11.510Z,39.92
2022-11-14T23:57:02.871Z,42.22
2022-11-14T23:59:50.240Z,44.03
